sensor_id;sensor_type;location;lat;lon;timestamp;temperature;humidity
50955;DHT22;36966;48.064;-0.792;2022-08-01T00:01:13;28.30;47.00
50955;DHT22;36966;48.064;-0.792;2022-08-01T00:03:32;28.30;47.10
50955;DHT22;36966;48.064;-0.792;2022-08-01T00:05:51;28.20;47.10
50955;DHT22;36966;48.064;-0.792;2022-08-01T00:08:10;28.20;47.20
50955;DHT22;36966;48.064;-0.792;2022-08-01T00:10:29;28.20;47.20
50955;DHT22;36966;48.064;-0.792;2022-08-01T00:12:49;28.20;47.20
50955;DHT22;36966;48.064;-0.792;2022-08-01T00:15:09;28.20;47.20
50955;DHT22;36966;48.064;-0.792;2022-08-01T00:17:29;28.20;47.10
50955;DHT22;36966;48.064;-0.792;2022-08-01T00:19:48;28.20;47.20
50955;DHT22;36966;48.064;-0.792;2022-08-01T00:22:08;28.20;47.10
50955;DHT22;36966;48.064;-0.792;2022-08-01T00:24:27;28.20;47.10
50955;DHT22;36966;48.064;-0.792;2022-08-01T00:26:46;28.20;47.10
50955;DHT22;36966;48.064;-0.792;2022-08-01T00:29:05;28.10;47.10
50955;DHT22;36966;48.064;-0.792;2022-08-01T00:31:24;28.20;47.20
50955;DHT22;36966;48.064;-0.792;2022-08-01T00:33:43;28.20;47.20
50955;DHT22;36966;48.064;-0.792;2022-08-01T00:36:03;28.10;47.20
50955;DHT22;36966;48.064;-0.792;2022-08-01T00:38:22;28.10;47.30
50955;DHT22;36966;48.064;-0.792;2022-08-01T00:40:41;28.10;47.30
50955;DHT22;36966;48.064;-0.792;2022-08-01T00:43:00;28.10;47.30
50955;DHT22;36966;48.064;-0.792;2022-08-01T00:45:20;28.10;47.30
50955;DHT22;36966;48.064;-0.792;2022-08-01T00:47:39;28.10;47.30
50955;DHT22;36966;48.064;-0.792;2022-08-01T00:49:59;28.00;47.40
50955;DHT22;36966;48.064;-0.792;2022-08-01T00:52:19;28.00;47.40
50955;DHT22;36966;48.064;-0.792;2022-08-01T00:54:38;28.10;47.40
50955;DHT22;36966;48.064;-0.792;2022-08-01T00:56:58;28.00;47.50
50955;DHT22;36966;48.064;-0.792;2022-08-01T00:59:18;28.00;47.50
50955;DHT22;36966;48.064;-0.792;2022-08-01T01:01:37;28.00;47.50
50955;DHT22;36966;48.064;-0.792;2022-08-01T01:03:57;28.00;47.40
50955;DHT22;36966;48.064;-0.792;2022-08-01T01:12:25;28.00;47.60
50955;DHT22;36966;48.064;-0.792;2022-08-01T01:17:47;28.00;47.70
50955;DHT22;36966;48.064;-0.792;2022-08-01T01:20:11;27.90;47.70
50955;DHT22;36966;48.064;-0.792;2022-08-01T01:30:15;27.80;47.70
50955;DHT22;36966;48.064;-0.792;2022-08-01T01:34:54;27.80;47.80
50955;DHT22;36966;48.064;-0.792;2022-08-01T01:37:17;27.80;47.70
50955;DHT22;36966;48.064;-0.792;2022-08-01T01:39:39;27.80;47.80
50955;DHT22;36966;48.064;-0.792;2022-08-01T01:42:00;27.80;47.80
50955;DHT22;36966;48.064;-0.792;2022-08-01T01:44:20;27.80;47.80
50955;DHT22;36966;48.064;-0.792;2022-08-01T01:46:40;27.80;47.90
50955;DHT22;36966;48.064;-0.792;2022-08-01T01:49:00;27.80;47.90
50955;DHT22;36966;48.064;-0.792;2022-08-01T01:51:22;27.80;47.90
50955;DHT22;36966;48.064;-0.792;2022-08-01T01:53:43;27.80;47.90
50955;DHT22;36966;48.064;-0.792;2022-08-01T01:56:04;27.80;47.90
50955;DHT22;36966;48.064;-0.792;2022-08-01T01:58:24;27.80;47.90
50955;DHT22;36966;48.064;-0.792;2022-08-01T02:00:46;27.70;47.90
50955;DHT22;36966;48.064;-0.792;2022-08-01T02:03:11;27.80;47.90
50955;DHT22;36966;48.064;-0.792;2022-08-01T02:05:31;27.70;47.90
50955;DHT22;36966;48.064;-0.792;2022-08-01T02:07:54;27.80;48.00
50955;DHT22;36966;48.064;-0.792;2022-08-01T02:10:16;27.80;47.90
50955;DHT22;36966;48.064;-0.792;2022-08-01T02:12:38;27.70;47.90
50955;DHT22;36966;48.064;-0.792;2022-08-01T02:14:58;27.70;48.00
50955;DHT22;36966;48.064;-0.792;2022-08-01T02:17:20;27.70;48.00
50955;DHT22;36966;48.064;-0.792;2022-08-01T02:19:39;27.70;48.00
50955;DHT22;36966;48.064;-0.792;2022-08-01T02:22:14;27.70;48.00
50955;DHT22;36966;48.064;-0.792;2022-08-01T02:24:41;27.70;48.00
50955;DHT22;36966;48.064;-0.792;2022-08-01T02:27:09;27.70;48.10
50955;DHT22;36966;48.064;-0.792;2022-08-01T02:29:53;27.70;48.10
50955;DHT22;36966;48.064;-0.792;2022-08-01T02:32:23;27.70;48.10
50955;DHT22;36966;48.064;-0.792;2022-08-01T02:34:46;27.70;48.10
50955;DHT22;36966;48.064;-0.792;2022-08-01T02:37:08;27.70;48.10
50955;DHT22;36966;48.064;-0.792;2022-08-01T02:39:30;27.60;48.10
50955;DHT22;36966;48.064;-0.792;2022-08-01T02:42:00;27.60;48.10
50955;DHT22;36966;48.064;-0.792;2022-08-01T02:44:30;27.60;48.10
50955;DHT22;36966;48.064;-0.792;2022-08-01T02:46:57;27.70;48.10
50955;DHT22;36966;48.064;-0.792;2022-08-01T02:49:18;27.60;48.10
50955;DHT22;36966;48.064;-0.792;2022-08-01T02:51:41;27.60;48.10
50955;DHT22;36966;48.064;-0.792;2022-08-01T02:54:02;27.60;48.10
50955;DHT22;36966;48.064;-0.792;2022-08-01T02:56:24;27.60;48.00
50955;DHT22;36966;48.064;-0.792;2022-08-01T02:58:54;27.60;48.10
50955;DHT22;36966;48.064;-0.792;2022-08-01T03:01:15;27.60;48.10
50955;DHT22;36966;48.064;-0.792;2022-08-01T03:03:36;27.60;48.00
50955;DHT22;36966;48.064;-0.792;2022-08-01T03:05:56;27.50;48.00
50955;DHT22;36966;48.064;-0.792;2022-08-01T03:08:18;27.50;48.00
50955;DHT22;36966;48.064;-0.792;2022-08-01T03:10:40;27.50;48.00
50955;DHT22;36966;48.064;-0.792;2022-08-01T03:13:01;27.50;48.00
50955;DHT22;36966;48.064;-0.792;2022-08-01T03:15:24;27.50;47.90
50955;DHT22;36966;48.064;-0.792;2022-08-01T03:17:46;27.50;47.90
50955;DHT22;36966;48.064;-0.792;2022-08-01T03:20:08;27.50;47.90
50955;DHT22;36966;48.064;-0.792;2022-08-01T03:22:29;27.50;47.90
50955;DHT22;36966;48.064;-0.792;2022-08-01T03:24:52;27.50;47.90
50955;DHT22;36966;48.064;-0.792;2022-08-01T03:27:14;27.50;47.90
50955;DHT22;36966;48.064;-0.792;2022-08-01T03:29:34;27.50;47.80
50955;DHT22;36966;48.064;-0.792;2022-08-01T03:31:54;27.50;47.90
50955;DHT22;36966;48.064;-0.792;2022-08-01T03:34:15;27.50;47.80
50955;DHT22;36966;48.064;-0.792;2022-08-01T03:36:43;27.50;47.80
50955;DHT22;36966;48.064;-0.792;2022-08-01T03:39:03;27.40;47.80
50955;DHT22;36966;48.064;-0.792;2022-08-01T03:41:27;27.40;47.80
50955;DHT22;36966;48.064;-0.792;2022-08-01T03:43:54;27.40;47.80
50955;DHT22;36966;48.064;-0.792;2022-08-01T03:46:19;27.40;47.80
50955;DHT22;36966;48.064;-0.792;2022-08-01T03:48:43;27.50;48.00
50955;DHT22;36966;48.064;-0.792;2022-08-01T03:51:06;27.20;48.40
50955;DHT22;36966;48.064;-0.792;2022-08-01T03:53:30;27.20;48.40
50955;DHT22;36966;48.064;-0.792;2022-08-01T03:55:51;27.20;48.30
50955;DHT22;36966;48.064;-0.792;2022-08-01T03:58:13;27.20;48.10
50955;DHT22;36966;48.064;-0.792;2022-08-01T04:00:33;27.20;48.00
50955;DHT22;36966;48.064;-0.792;2022-08-01T04:02:53;27.20;47.90
50955;DHT22;36966;48.064;-0.792;2022-08-01T04:05:13;27.30;47.90
50955;DHT22;36966;48.064;-0.792;2022-08-01T04:07:33;27.20;47.80
50955;DHT22;36966;48.064;-0.792;2022-08-01T04:09:58;27.20;47.80
50955;DHT22;36966;48.064;-0.792;2022-08-01T04:12:17;27.20;47.80
50955;DHT22;36966;48.064;-0.792;2022-08-01T04:14:37;27.20;47.70
50955;DHT22;36966;48.064;-0.792;2022-08-01T04:16:56;27.20;47.70
50955;DHT22;36966;48.064;-0.792;2022-08-01T04:19:15;27.20;47.70
50955;DHT22;36966;48.064;-0.792;2022-08-01T04:21:34;27.20;47.70
50955;DHT22;36966;48.064;-0.792;2022-08-01T04:24:00;27.20;47.70
50955;DHT22;36966;48.064;-0.792;2022-08-01T04:26:23;27.20;47.70
50955;DHT22;36966;48.064;-0.792;2022-08-01T04:28:44;27.20;47.70
50955;DHT22;36966;48.064;-0.792;2022-08-01T04:31:07;27.20;47.70
50955;DHT22;36966;48.064;-0.792;2022-08-01T04:33:30;27.20;47.70
50955;DHT22;36966;48.064;-0.792;2022-08-01T04:35:49;27.20;47.70
50955;DHT22;36966;48.064;-0.792;2022-08-01T04:38:10;27.20;47.70
50955;DHT22;36966;48.064;-0.792;2022-08-01T04:40:32;27.20;47.70
50955;DHT22;36966;48.064;-0.792;2022-08-01T04:42:53;27.20;47.70
50955;DHT22;36966;48.064;-0.792;2022-08-01T04:45:12;27.20;47.70
50955;DHT22;36966;48.064;-0.792;2022-08-01T04:47:32;27.20;47.70
50955;DHT22;36966;48.064;-0.792;2022-08-01T04:49:52;27.20;47.70
50955;DHT22;36966;48.064;-0.792;2022-08-01T04:52:12;27.20;47.70
50955;DHT22;36966;48.064;-0.792;2022-08-01T04:54:33;27.20;47.70
50955;DHT22;36966;48.064;-0.792;2022-08-01T04:56:53;27.10;47.70
50955;DHT22;36966;48.064;-0.792;2022-08-01T04:59:17;27.20;47.80
50955;DHT22;36966;48.064;-0.792;2022-08-01T05:01:55;27.10;47.80
50955;DHT22;36966;48.064;-0.792;2022-08-01T05:04:15;27.20;47.80
50955;DHT22;36966;48.064;-0.792;2022-08-01T05:06:34;27.10;47.80
50955;DHT22;36966;48.064;-0.792;2022-08-01T05:08:53;27.10;47.70
50955;DHT22;36966;48.064;-0.792;2022-08-01T05:11:12;27.10;47.70
50955;DHT22;36966;48.064;-0.792;2022-08-01T05:13:31;27.10;47.70
50955;DHT22;36966;48.064;-0.792;2022-08-01T05:15:50;27.10;47.80
50955;DHT22;36966;48.064;-0.792;2022-08-01T05:18:11;27.10;47.80
50955;DHT22;36966;48.064;-0.792;2022-08-01T05:20:30;27.10;47.80
50955;DHT22;36966;48.064;-0.792;2022-08-01T05:22:51;27.10;47.70
50955;DHT22;36966;48.064;-0.792;2022-08-01T05:25:10;27.10;47.70
50955;DHT22;36966;48.064;-0.792;2022-08-01T05:27:29;27.10;47.70
50955;DHT22;36966;48.064;-0.792;2022-08-01T05:29:48;27.10;47.70
50955;DHT22;36966;48.064;-0.792;2022-08-01T05:32:07;27.10;47.80
50955;DHT22;36966;48.064;-0.792;2022-08-01T05:34:27;27.10;47.70
50955;DHT22;36966;48.064;-0.792;2022-08-01T05:36:47;27.10;47.70
50955;DHT22;36966;48.064;-0.792;2022-08-01T05:39:06;27.10;47.60
50955;DHT22;36966;48.064;-0.792;2022-08-01T05:41:25;27.20;47.50
50955;DHT22;36966;48.064;-0.792;2022-08-01T05:43:45;27.20;47.50
50955;DHT22;36966;48.064;-0.792;2022-08-01T05:46:04;27.20;47.50
50955;DHT22;36966;48.064;-0.792;2022-08-01T05:48:23;27.20;47.50
50955;DHT22;36966;48.064;-0.792;2022-08-01T05:50:43;27.20;47.40
50955;DHT22;36966;48.064;-0.792;2022-08-01T05:53:02;27.20;47.50
50955;DHT22;36966;48.064;-0.792;2022-08-01T05:55:21;27.10;47.40
50955;DHT22;36966;48.064;-0.792;2022-08-01T05:57:40;27.20;47.50
50955;DHT22;36966;48.064;-0.792;2022-08-01T05:59:59;27.10;47.70
50955;DHT22;36966;48.064;-0.792;2022-08-01T06:02:18;27.10;47.70
50955;DHT22;36966;48.064;-0.792;2022-08-01T06:04:38;27.10;47.60
50955;DHT22;36966;48.064;-0.792;2022-08-01T06:06:57;27.10;47.50
50955;DHT22;36966;48.064;-0.792;2022-08-01T06:09:16;27.10;47.50
50955;DHT22;36966;48.064;-0.792;2022-08-01T06:11:35;27.10;47.50
50955;DHT22;36966;48.064;-0.792;2022-08-01T06:13:55;27.10;47.50
50955;DHT22;36966;48.064;-0.792;2022-08-01T06:16:14;27.20;47.50
50955;DHT22;36966;48.064;-0.792;2022-08-01T06:18:33;27.10;47.40
50955;DHT22;36966;48.064;-0.792;2022-08-01T06:20:52;27.10;47.50
50955;DHT22;36966;48.064;-0.792;2022-08-01T06:23:11;27.10;47.50
50955;DHT22;36966;48.064;-0.792;2022-08-01T06:25:32;27.10;47.60
50955;DHT22;36966;48.064;-0.792;2022-08-01T06:27:52;27.10;48.10
50955;DHT22;36966;48.064;-0.792;2022-08-01T06:30:11;27.10;48.50
50955;DHT22;36966;48.064;-0.792;2022-08-01T06:32:30;27.10;48.50
50955;DHT22;36966;48.064;-0.792;2022-08-01T06:34:50;27.10;48.60
50955;DHT22;36966;48.064;-0.792;2022-08-01T06:37:09;27.10;48.60
50955;DHT22;36966;48.064;-0.792;2022-08-01T06:39:28;27.10;48.60
50955;DHT22;36966;48.064;-0.792;2022-08-01T06:41:47;27.00;48.70
50955;DHT22;36966;48.064;-0.792;2022-08-01T06:44:06;27.00;48.60
50955;DHT22;36966;48.064;-0.792;2022-08-01T06:46:25;27.00;48.50
50955;DHT22;36966;48.064;-0.792;2022-08-01T06:48:44;27.00;48.40
50955;DHT22;36966;48.064;-0.792;2022-08-01T06:51:04;27.00;48.30
50955;DHT22;36966;48.064;-0.792;2022-08-01T06:53:26;27.00;48.30
50955;DHT22;36966;48.064;-0.792;2022-08-01T06:55:46;27.00;48.20
50955;DHT22;36966;48.064;-0.792;2022-08-01T06:58:05;27.00;48.20
50955;DHT22;36966;48.064;-0.792;2022-08-01T07:00:25;27.00;48.10
50955;DHT22;36966;48.064;-0.792;2022-08-01T07:02:45;27.00;48.00
50955;DHT22;36966;48.064;-0.792;2022-08-01T07:05:05;27.00;48.00
50955;DHT22;36966;48.064;-0.792;2022-08-01T07:07:24;27.00;48.00
50955;DHT22;36966;48.064;-0.792;2022-08-01T07:09:43;27.00;48.10
50955;DHT22;36966;48.064;-0.792;2022-08-01T07:12:03;27.00;48.10
50955;DHT22;36966;48.064;-0.792;2022-08-01T07:14:23;27.10;48.00
50955;DHT22;36966;48.064;-0.792;2022-08-01T07:16:43;27.10;48.00
50955;DHT22;36966;48.064;-0.792;2022-08-01T07:19:03;27.00;48.00
50955;DHT22;36966;48.064;-0.792;2022-08-01T07:21:22;27.00;48.00
50955;DHT22;36966;48.064;-0.792;2022-08-01T07:23:42;27.00;48.00
50955;DHT22;36966;48.064;-0.792;2022-08-01T07:26:02;27.10;48.00
50955;DHT22;36966;48.064;-0.792;2022-08-01T07:28:21;27.10;48.00
50955;DHT22;36966;48.064;-0.792;2022-08-01T07:30:40;27.10;48.10
50955;DHT22;36966;48.064;-0.792;2022-08-01T07:33:01;27.10;48.00
50955;DHT22;36966;48.064;-0.792;2022-08-01T07:35:21;27.10;48.00
50955;DHT22;36966;48.064;-0.792;2022-08-01T07:37:40;27.00;48.10
50955;DHT22;36966;48.064;-0.792;2022-08-01T07:39:59;27.00;48.30
50955;DHT22;36966;48.064;-0.792;2022-08-01T07:42:18;27.00;48.20
50955;DHT22;36966;48.064;-0.792;2022-08-01T07:44:38;27.00;48.20
50955;DHT22;36966;48.064;-0.792;2022-08-01T07:46:57;27.00;48.00
50955;DHT22;36966;48.064;-0.792;2022-08-01T07:49:17;27.00;48.10
50955;DHT22;36966;48.064;-0.792;2022-08-01T07:51:36;27.00;48.10
50955;DHT22;36966;48.064;-0.792;2022-08-01T07:53:55;27.00;48.10
50955;DHT22;36966;48.064;-0.792;2022-08-01T07:56:15;26.90;48.10
50955;DHT22;36966;48.064;-0.792;2022-08-01T07:58:34;26.90;48.10
50955;DHT22;36966;48.064;-0.792;2022-08-01T08:00:53;26.90;48.20
50955;DHT22;36966;48.064;-0.792;2022-08-01T08:03:12;26.90;48.10
50955;DHT22;36966;48.064;-0.792;2022-08-01T08:05:32;26.90;48.00
50955;DHT22;36966;48.064;-0.792;2022-08-01T08:07:54;26.90;48.00
50955;DHT22;36966;48.064;-0.792;2022-08-01T08:10:13;26.90;48.00
50955;DHT22;36966;48.064;-0.792;2022-08-01T08:12:32;26.90;48.00
50955;DHT22;36966;48.064;-0.792;2022-08-01T08:14:51;26.90;48.00
50955;DHT22;36966;48.064;-0.792;2022-08-01T08:17:10;26.80;48.00
50955;DHT22;36966;48.064;-0.792;2022-08-01T08:19:30;26.80;48.00
50955;DHT22;36966;48.064;-0.792;2022-08-01T08:21:51;26.80;48.10
50955;DHT22;36966;48.064;-0.792;2022-08-01T08:24:11;26.80;48.00
50955;DHT22;36966;48.064;-0.792;2022-08-01T08:26:39;26.80;48.20
50955;DHT22;36966;48.064;-0.792;2022-08-01T08:28:58;26.80;48.20
50955;DHT22;36966;48.064;-0.792;2022-08-01T08:31:17;26.80;48.10
50955;DHT22;36966;48.064;-0.792;2022-08-01T08:33:37;26.80;48.00
50955;DHT22;36966;48.064;-0.792;2022-08-01T08:35:56;26.80;48.00
50955;DHT22;36966;48.064;-0.792;2022-08-01T08:38:15;26.80;47.90
50955;DHT22;36966;48.064;-0.792;2022-08-01T08:40:36;26.80;47.90
50955;DHT22;36966;48.064;-0.792;2022-08-01T08:42:58;26.80;47.90
50955;DHT22;36966;48.064;-0.792;2022-08-01T08:45:18;26.80;48.00
50955;DHT22;36966;48.064;-0.792;2022-08-01T08:47:39;26.80;48.10
50955;DHT22;36966;48.064;-0.792;2022-08-01T08:50:01;26.80;48.10
50955;DHT22;36966;48.064;-0.792;2022-08-01T08:52:23;26.80;48.00
50955;DHT22;36966;48.064;-0.792;2022-08-01T08:54:43;26.80;48.10
50955;DHT22;36966;48.064;-0.792;2022-08-01T08:57:04;26.80;48.10
50955;DHT22;36966;48.064;-0.792;2022-08-01T08:59:25;26.80;48.10
50955;DHT22;36966;48.064;-0.792;2022-08-01T09:01:45;26.80;48.00
50955;DHT22;36966;48.064;-0.792;2022-08-01T09:04:05;26.80;48.00
50955;DHT22;36966;48.064;-0.792;2022-08-01T09:06:24;26.80;47.90
50955;DHT22;36966;48.064;-0.792;2022-08-01T09:08:43;26.90;48.00
50955;DHT22;36966;48.064;-0.792;2022-08-01T09:11:03;26.90;48.10
50955;DHT22;36966;48.064;-0.792;2022-08-01T09:13:23;26.90;48.10
50955;DHT22;36966;48.064;-0.792;2022-08-01T09:15:50;26.90;48.20
50955;DHT22;36966;48.064;-0.792;2022-08-01T09:18:35;27.00;48.00
50955;DHT22;36966;48.064;-0.792;2022-08-01T09:21:16;27.00;48.00
50955;DHT22;36966;48.064;-0.792;2022-08-01T09:24:14;27.00;48.00
50955;DHT22;36966;48.064;-0.792;2022-08-01T09:26:34;27.10;48.00
50955;DHT22;36966;48.064;-0.792;2022-08-01T09:28:53;27.10;48.00
50955;DHT22;36966;48.064;-0.792;2022-08-01T09:31:14;27.10;48.00
50955;DHT22;36966;48.064;-0.792;2022-08-01T09:33:56;27.10;48.00
50955;DHT22;36966;48.064;-0.792;2022-08-01T09:36:17;27.10;48.00
50955;DHT22;36966;48.064;-0.792;2022-08-01T09:38:37;27.10;48.00
50955;DHT22;36966;48.064;-0.792;2022-08-01T09:40:58;27.20;48.00
50955;DHT22;36966;48.064;-0.792;2022-08-01T09:43:18;27.20;48.10
50955;DHT22;36966;48.064;-0.792;2022-08-01T09:45:38;27.10;48.10
50955;DHT22;36966;48.064;-0.792;2022-08-01T09:47:57;27.20;48.10
50955;DHT22;36966;48.064;-0.792;2022-08-01T09:50:42;27.20;48.10
50955;DHT22;36966;48.064;-0.792;2022-08-01T09:53:01;27.20;48.10
50955;DHT22;36966;48.064;-0.792;2022-08-01T09:55:21;27.20;48.10
50955;DHT22;36966;48.064;-0.792;2022-08-01T09:57:54;27.20;48.00
50955;DHT22;36966;48.064;-0.792;2022-08-01T10:00:17;27.20;48.00
50955;DHT22;36966;48.064;-0.792;2022-08-01T10:02:38;27.30;47.90
50955;DHT22;36966;48.064;-0.792;2022-08-01T10:04:59;27.30;47.80
50955;DHT22;36966;48.064;-0.792;2022-08-01T10:07:19;27.30;47.90
50955;DHT22;36966;48.064;-0.792;2022-08-01T10:09:39;27.40;47.60
50955;DHT22;36966;48.064;-0.792;2022-08-01T10:11:59;27.40;47.60
50955;DHT22;36966;48.064;-0.792;2022-08-01T10:14:19;27.50;47.60
50955;DHT22;36966;48.064;-0.792;2022-08-01T10:16:39;27.50;47.60
50955;DHT22;36966;48.064;-0.792;2022-08-01T10:18:58;27.50;47.60
50955;DHT22;36966;48.064;-0.792;2022-08-01T10:21:18;27.50;47.60
50955;DHT22;36966;48.064;-0.792;2022-08-01T10:23:38;27.60;47.40
50955;DHT22;36966;48.064;-0.792;2022-08-01T10:25:58;27.50;47.40
50955;DHT22;36966;48.064;-0.792;2022-08-01T10:28:18;27.60;47.40
50955;DHT22;36966;48.064;-0.792;2022-08-01T10:30:41;27.50;47.40
50955;DHT22;36966;48.064;-0.792;2022-08-01T10:33:01;27.60;47.40
50955;DHT22;36966;48.064;-0.792;2022-08-01T10:35:21;27.50;47.80
50955;DHT22;36966;48.064;-0.792;2022-08-01T10:37:41;27.50;47.70
50955;DHT22;36966;48.064;-0.792;2022-08-01T10:40:01;27.60;47.80
50955;DHT22;36966;48.064;-0.792;2022-08-01T10:42:24;27.70;47.80
50955;DHT22;36966;48.064;-0.792;2022-08-01T10:44:44;27.70;47.40
50955;DHT22;36966;48.064;-0.792;2022-08-01T10:47:09;27.80;47.40
50955;DHT22;36966;48.064;-0.792;2022-08-01T10:49:34;27.80;47.30
50955;DHT22;36966;48.064;-0.792;2022-08-01T10:51:55;27.80;47.20
50955;DHT22;36966;48.064;-0.792;2022-08-01T10:54:14;27.90;47.10
50955;DHT22;36966;48.064;-0.792;2022-08-01T10:59:03;27.80;46.90
50955;DHT22;36966;48.064;-0.792;2022-08-01T11:03:56;27.80;46.90
50955;DHT22;36966;48.064;-0.792;2022-08-01T11:06:17;27.80;46.90
50955;DHT22;36966;48.064;-0.792;2022-08-01T11:08:37;27.80;47.00
50955;DHT22;36966;48.064;-0.792;2022-08-01T11:11:01;27.80;46.90
50955;DHT22;36966;48.064;-0.792;2022-08-01T11:16:36;27.80;47.10
50955;DHT22;36966;48.064;-0.792;2022-08-01T11:18:56;27.80;47.00
50955;DHT22;36966;48.064;-0.792;2022-08-01T11:21:16;27.80;47.00
50955;DHT22;36966;48.064;-0.792;2022-08-01T11:23:47;27.80;47.00
50955;DHT22;36966;48.064;-0.792;2022-08-01T11:26:08;27.80;47.00
50955;DHT22;36966;48.064;-0.792;2022-08-01T11:28:28;27.80;47.00
50955;DHT22;36966;48.064;-0.792;2022-08-01T11:30:51;27.70;47.10
50955;DHT22;36966;48.064;-0.792;2022-08-01T11:33:13;27.70;47.10
50955;DHT22;36966;48.064;-0.792;2022-08-01T11:35:35;27.80;47.10
50955;DHT22;36966;48.064;-0.792;2022-08-01T11:37:54;27.80;47.00
50955;DHT22;36966;48.064;-0.792;2022-08-01T11:40:27;27.70;47.10
50955;DHT22;36966;48.064;-0.792;2022-08-01T11:42:48;27.70;47.00
50955;DHT22;36966;48.064;-0.792;2022-08-01T11:45:08;27.70;47.10
50955;DHT22;36966;48.064;-0.792;2022-08-01T11:47:48;27.70;47.00
50955;DHT22;36966;48.064;-0.792;2022-08-01T11:53:00;27.70;47.00
50955;DHT22;36966;48.064;-0.792;2022-08-01T11:55:20;27.70;47.10
50955;DHT22;36966;48.064;-0.792;2022-08-01T11:57:39;27.70;47.10
50955;DHT22;36966;48.064;-0.792;2022-08-01T11:59:59;27.70;47.10
50955;DHT22;36966;48.064;-0.792;2022-08-01T12:05:10;27.70;47.10
50955;DHT22;36966;48.064;-0.792;2022-08-01T12:07:34;27.70;47.10
50955;DHT22;36966;48.064;-0.792;2022-08-01T12:10:05;27.70;47.10
50955;DHT22;36966;48.064;-0.792;2022-08-01T12:12:24;27.70;47.10
50955;DHT22;36966;48.064;-0.792;2022-08-01T12:14:45;27.70;47.20
50955;DHT22;36966;48.064;-0.792;2022-08-01T12:17:05;27.80;47.10
50955;DHT22;36966;48.064;-0.792;2022-08-01T12:19:24;27.80;47.00
50955;DHT22;36966;48.064;-0.792;2022-08-01T12:21:43;27.80;47.00
50955;DHT22;36966;48.064;-0.792;2022-08-01T12:24:03;27.80;46.90
50955;DHT22;36966;48.064;-0.792;2022-08-01T12:26:22;27.90;46.90
50955;DHT22;36966;48.064;-0.792;2022-08-01T12:28:41;27.80;46.90
50955;DHT22;36966;48.064;-0.792;2022-08-01T12:31:00;27.90;47.00
50955;DHT22;36966;48.064;-0.792;2022-08-01T12:33:20;27.90;47.00
50955;DHT22;36966;48.064;-0.792;2022-08-01T12:35:40;28.00;46.70
50955;DHT22;36966;48.064;-0.792;2022-08-01T12:38:03;28.00;46.70
50955;DHT22;36966;48.064;-0.792;2022-08-01T12:40:35;28.00;46.80
50955;DHT22;36966;48.064;-0.792;2022-08-01T12:43:00;28.00;46.70
50955;DHT22;36966;48.064;-0.792;2022-08-01T12:45:25;28.10;46.60
50955;DHT22;36966;48.064;-0.792;2022-08-01T12:47:46;28.10;46.60
50955;DHT22;36966;48.064;-0.792;2022-08-01T12:50:10;28.10;46.70
50955;DHT22;36966;48.064;-0.792;2022-08-01T12:52:31;28.10;46.70
50955;DHT22;36966;48.064;-0.792;2022-08-01T12:55:07;28.10;46.60
50955;DHT22;36966;48.064;-0.792;2022-08-01T12:57:30;28.20;46.60
50955;DHT22;36966;48.064;-0.792;2022-08-01T12:59:52;28.20;46.60
50955;DHT22;36966;48.064;-0.792;2022-08-01T13:02:12;28.20;46.60
50955;DHT22;36966;48.064;-0.792;2022-08-01T13:04:31;28.20;46.60
50955;DHT22;36966;48.064;-0.792;2022-08-01T13:06:53;28.20;46.40
50955;DHT22;36966;48.064;-0.792;2022-08-01T13:09:13;28.20;46.40
50955;DHT22;36966;48.064;-0.792;2022-08-01T13:11:32;28.20;46.50
50955;DHT22;36966;48.064;-0.792;2022-08-01T13:13:52;28.20;46.60
50955;DHT22;36966;48.064;-0.792;2022-08-01T13:16:11;28.20;46.50
50955;DHT22;36966;48.064;-0.792;2022-08-01T13:18:32;28.20;46.60
50955;DHT22;36966;48.064;-0.792;2022-08-01T13:23:26;28.20;46.50
50955;DHT22;36966;48.064;-0.792;2022-08-01T13:25:55;28.20;46.50
50955;DHT22;36966;48.064;-0.792;2022-08-01T13:28:16;28.30;46.40
50955;DHT22;36966;48.064;-0.792;2022-08-01T13:30:36;28.20;46.40
50955;DHT22;36966;48.064;-0.792;2022-08-01T13:32:58;28.20;46.40
50955;DHT22;36966;48.064;-0.792;2022-08-01T13:35:20;28.30;46.50
50955;DHT22;36966;48.064;-0.792;2022-08-01T13:37:42;28.30;46.40
50955;DHT22;36966;48.064;-0.792;2022-08-01T13:40:02;28.30;46.40
50955;DHT22;36966;48.064;-0.792;2022-08-01T13:42:22;28.30;46.40
50955;DHT22;36966;48.064;-0.792;2022-08-01T13:44:42;28.30;46.40
50955;DHT22;36966;48.064;-0.792;2022-08-01T13:47:05;28.30;46.40
50955;DHT22;36966;48.064;-0.792;2022-08-01T13:49:25;28.20;46.50
50955;DHT22;36966;48.064;-0.792;2022-08-01T13:51:44;28.20;46.60
50955;DHT22;36966;48.064;-0.792;2022-08-01T13:54:05;28.20;46.60
50955;DHT22;36966;48.064;-0.792;2022-08-01T13:56:25;28.20;46.70
50955;DHT22;36966;48.064;-0.792;2022-08-01T13:58:47;28.20;46.70
50955;DHT22;36966;48.064;-0.792;2022-08-01T14:01:06;28.20;46.60
50955;DHT22;36966;48.064;-0.792;2022-08-01T14:03:25;28.20;46.50
50955;DHT22;36966;48.064;-0.792;2022-08-01T14:05:44;28.20;46.60
50955;DHT22;36966;48.064;-0.792;2022-08-01T14:08:04;28.30;46.50
50955;DHT22;36966;48.064;-0.792;2022-08-01T14:10:24;28.30;46.50
50955;DHT22;36966;48.064;-0.792;2022-08-01T14:12:43;28.30;46.50
50955;DHT22;36966;48.064;-0.792;2022-08-01T14:15:02;28.30;46.50
50955;DHT22;36966;48.064;-0.792;2022-08-01T14:17:22;28.30;46.60
50955;DHT22;36966;48.064;-0.792;2022-08-01T14:19:41;28.30;46.50
50955;DHT22;36966;48.064;-0.792;2022-08-01T14:22:01;28.30;46.50
50955;DHT22;36966;48.064;-0.792;2022-08-01T14:24:20;28.30;46.40
50955;DHT22;36966;48.064;-0.792;2022-08-01T14:26:39;28.30;46.40
50955;DHT22;36966;48.064;-0.792;2022-08-01T14:28:58;28.30;46.40
50955;DHT22;36966;48.064;-0.792;2022-08-01T14:31:17;28.30;46.40
50955;DHT22;36966;48.064;-0.792;2022-08-01T14:33:36;28.30;46.40
50955;DHT22;36966;48.064;-0.792;2022-08-01T14:35:55;28.30;46.40
50955;DHT22;36966;48.064;-0.792;2022-08-01T14:38:15;28.30;46.50
50955;DHT22;36966;48.064;-0.792;2022-08-01T14:40:35;28.20;46.50
50955;DHT22;36966;48.064;-0.792;2022-08-01T14:42:54;28.20;46.50
50955;DHT22;36966;48.064;-0.792;2022-08-01T14:45:14;28.20;46.50
50955;DHT22;36966;48.064;-0.792;2022-08-01T14:47:34;28.30;46.50
50955;DHT22;36966;48.064;-0.792;2022-08-01T14:49:54;28.20;46.60
50955;DHT22;36966;48.064;-0.792;2022-08-01T14:52:13;28.20;46.60
50955;DHT22;36966;48.064;-0.792;2022-08-01T14:54:32;28.20;46.60
50955;DHT22;36966;48.064;-0.792;2022-08-01T14:56:51;28.20;46.70
50955;DHT22;36966;48.064;-0.792;2022-08-01T14:59:12;28.20;46.60
50955;DHT22;36966;48.064;-0.792;2022-08-01T15:01:31;28.20;46.70
50955;DHT22;36966;48.064;-0.792;2022-08-01T15:03:50;28.20;46.80
50955;DHT22;36966;48.064;-0.792;2022-08-01T15:06:10;28.20;46.70
50955;DHT22;36966;48.064;-0.792;2022-08-01T15:08:30;28.20;46.70
50955;DHT22;36966;48.064;-0.792;2022-08-01T15:10:51;28.20;46.60
50955;DHT22;36966;48.064;-0.792;2022-08-01T15:13:10;28.20;46.70